createdAt,value
2022-11-08T00:01:40.824Z,15.53
2022-11-08T00:04:10.689Z,15.77
2022-11-08T00:06:58.358Z,16.73
2022-11-08T00:09:45.170Z,16.80
2022-11-08T00:12:31.872Z,20.53
2022-11-08T00:14:59.711Z,20.10
2022-11-08T00:17:28.726Z,21.40
2022-11-08T00:19:56.162Z,17.17
2022-11-08T00:22:24.943Z,31.53
2022-11-08T00:24:52.536Z,21.60
2022-11-08T00:27:27.538Z,20.40
2022-11-08T00:29:56.005Z,20.80
2022-11-08T00:32:27.275Z,17.50
2022-11-08T00:34:54.458Z,19.23
2022-11-08T00:37:22.983Z,20.83
2022-11-08T00:39:50.888Z,21.57
2022-11-08T00:42:18.368Z,20.47
2022-11-08T00:44:45.696Z,17.60
2022-11-08T00:47:12.982Z,17.03
2022-11-08T00:49:42.363Z,18.27
2022-11-08T00:52:09.637Z,17.80
2022-11-08T00:54:36.830Z,15.73
2022-11-08T00:57:04.075Z,14.23
2022-11-08T00:59:31.279Z,16.30
2022-11-08T01:01:59.315Z,15.40
2022-11-08T01:04:26.706Z,13.57
2022-11-08T01:06:54.890Z,13.33
2022-11-08T01:09:22.114Z,14.43
2022-11-08T01:11:50.131Z,13.37
2022-11-08T01:14:20.343Z,14.27
2022-11-08T01:16:51.793Z,17.17
2022-11-08T01:19:19.232Z,14.90
2022-11-08T01:21:47.877Z,13.73
2022-11-08T01:24:15.304Z,14.80
2022-11-08T01:26:43.548Z,14.33
2022-11-08T01:29:14.111Z,16.00
2022-11-08T01:31:43.871Z,13.83
2022-11-08T01:34:11.146Z,13.27
2022-11-08T01:36:38.535Z,16.07
2022-11-08T01:39:06.003Z,15.07
2022-11-08T01:41:33.875Z,15.37
2022-11-08T01:44:01.084Z,13.47
2022-11-08T01:46:38.690Z,14.47
2022-11-08T01:49:08.621Z,14.60
2022-11-08T01:51:40.558Z,12.90
2022-11-08T01:54:09.618Z,14.27
2022-11-08T02:00:40.464Z,13.43
2022-11-08T02:03:09.401Z,13.67
2022-11-08T02:05:37.754Z,13.57
2022-11-08T02:08:31.627Z,14.53
2022-11-08T02:11:18.159Z,14.83
2022-11-08T02:13:45.755Z,14.63
2022-11-08T02:16:15.098Z,14.27
2022-11-08T02:18:44.603Z,15.93
2022-11-08T02:21:50.811Z,17.23
2022-11-08T02:24:18.221Z,12.97
2022-11-08T02:26:53.358Z,16.47
2022-11-08T02:29:35.084Z,17.13
2022-11-08T02:36:41.282Z,14.80
2022-11-08T02:38:46.242Z,13.63
2022-11-08T02:41:14.241Z,13.77
2022-11-08T02:43:42.355Z,19.40
2022-11-08T02:46:09.639Z,13.70
2022-11-08T02:48:36.926Z,13.40
2022-11-08T02:51:05.448Z,13.00
2022-11-08T02:53:32.876Z,13.77
2022-11-08T02:56:02.197Z,13.87
2022-11-08T02:58:29.752Z,14.93
2022-11-08T03:00:57.071Z,12.63
2022-11-08T03:03:24.680Z,16.47
2022-11-08T03:05:51.994Z,13.90
2022-11-08T03:08:19.531Z,14.27
2022-11-08T03:10:47.537Z,13.93
2022-11-08T03:13:15.343Z,14.83
2022-11-08T03:15:42.547Z,14.70
2022-11-08T03:18:10.192Z,15.17
2022-11-08T03:20:37.456Z,13.83
2022-11-08T03:23:06.681Z,13.87
2022-11-08T03:25:34.511Z,14.00
2022-11-08T03:28:04.029Z,13.87
2022-11-08T03:30:32.332Z,14.37
2022-11-08T03:32:59.976Z,15.27
2022-11-08T03:35:27.368Z,13.67
2022-11-08T03:37:56.248Z,14.60
2022-11-08T03:40:24.309Z,15.30
2022-11-08T03:42:51.831Z,16.40
2022-11-08T03:45:19.501Z,14.70
2022-11-08T03:47:47.966Z,13.73
2022-11-08T03:50:16.555Z,14.93
2022-11-08T03:52:46.689Z,15.40
2022-11-08T03:55:18.567Z,14.20
2022-11-08T03:57:47.975Z,16.30
2022-11-08T04:00:18.165Z,14.53
2022-11-08T04:02:47.023Z,14.23
2022-11-08T04:05:15.581Z,18.92
2022-11-08T04:07:43.521Z,14.20
2022-11-08T04:10:12.251Z,13.77
2022-11-08T04:13:00.627Z,12.90
2022-11-08T04:15:29.851Z,13.47
2022-11-08T04:18:17.529Z,13.73
2022-11-08T04:21:05.726Z,14.93
2022-11-08T04:23:36.662Z,13.70
2022-11-08T04:26:08.662Z,13.93
2022-11-08T04:28:37.201Z,13.43
2022-11-08T04:31:06.913Z,15.33
2022-11-08T04:33:34.372Z,14.57
2022-11-08T04:36:03.995Z,15.87
2022-11-08T04:38:32.560Z,14.70
2022-11-08T04:41:05.491Z,15.20
2022-11-08T04:43:33.259Z,14.57
2022-11-08T04:46:02.566Z,14.03
2022-11-08T04:48:30.353Z,14.73
2022-11-08T04:51:10.142Z,14.10
2022-11-08T04:53:37.631Z,16.53
2022-11-08T04:56:10.171Z,13.80
2022-11-08T04:58:45.589Z,13.80
2022-11-08T05:01:18.023Z,13.13
2022-11-08T05:03:47.080Z,13.37
2022-11-08T05:06:23.132Z,13.93
2022-11-08T05:08:51.019Z,14.33
2022-11-08T05:11:21.173Z,14.17
2022-11-08T05:13:49.254Z,13.73
2022-11-08T05:16:27.813Z,15.20
2022-11-08T05:18:55.683Z,14.87
2022-11-08T05:21:43.070Z,14.97
2022-11-08T05:24:12.857Z,14.50
2022-11-08T05:26:44.405Z,16.10
2022-11-08T05:29:12.637Z,15.73
2022-11-08T05:31:40.036Z,15.13
2022-11-08T05:34:07.720Z,15.00
2022-11-08T05:36:35.370Z,16.03
2022-11-08T05:39:02.976Z,16.17
2022-11-08T05:41:30.310Z,15.17
2022-11-08T05:43:57.958Z,17.87
2022-11-08T05:46:27.290Z,18.33
2022-11-08T05:48:55.008Z,20.43
2022-11-08T05:51:22.472Z,19.30
2022-11-08T05:53:49.841Z,17.50
2022-11-08T05:56:17.953Z,15.67
2022-11-08T05:58:45.656Z,16.50
2022-11-08T06:01:15.534Z,15.73
2022-11-08T06:03:44.311Z,16.63
2022-11-08T06:06:14.659Z,16.75
2022-11-08T06:08:49.002Z,16.77
2022-11-08T06:11:23.951Z,17.33
2022-11-08T06:13:52.415Z,15.40
2022-11-08T06:16:21.146Z,15.90
2022-11-08T06:18:48.514Z,17.25
2022-11-08T06:21:19.023Z,16.97
2022-11-08T06:23:49.255Z,16.47
2022-11-08T06:26:16.460Z,17.55
2022-11-08T06:28:44.071Z,17.63
2022-11-08T06:31:11.420Z,19.05
2022-11-08T06:33:38.737Z,18.10
2022-11-08T06:36:07.072Z,18.23
2022-11-08T06:38:34.448Z,18.93
2022-11-08T06:41:02.534Z,17.73
2022-11-08T06:43:30.053Z,17.90
2022-11-08T06:46:02.486Z,23.15
2022-11-08T06:48:35.326Z,20.00
2022-11-08T06:51:04.251Z,18.30
2022-11-08T06:53:31.886Z,17.57
2022-11-08T06:56:01.190Z,17.48
2022-11-08T06:58:29.346Z,18.53
2022-11-08T07:00:58.518Z,16.70
2022-11-08T07:03:26.130Z,19.47
2022-11-08T07:05:53.653Z,17.77
2022-11-08T07:08:24.016Z,17.83
2022-11-08T07:10:53.789Z,19.42
2022-11-08T07:13:24.340Z,18.63
2022-11-08T07:15:51.868Z,17.80
2022-11-08T07:18:20.209Z,19.80
2022-11-08T07:20:47.790Z,20.60
2022-11-08T07:23:15.399Z,19.15
2022-11-08T07:25:43.051Z,20.17
2022-11-08T07:28:18.047Z,19.38
2022-11-08T07:30:46.840Z,20.23
2022-11-08T07:33:16.080Z,20.25
2022-11-08T07:35:46.399Z,20.15
2022-11-08T07:38:13.724Z,22.60
2022-11-08T07:40:41.071Z,21.35
2022-11-08T07:43:12.879Z,23.92
2022-11-08T07:45:42.157Z,21.23
2022-11-08T07:48:12.889Z,21.08
2022-11-08T07:50:42.854Z,19.50
2022-11-08T07:53:10.700Z,22.30
2022-11-08T07:55:40.297Z,22.50
2022-11-08T07:58:08.744Z,18.15
2022-11-08T08:00:39.020Z,18.45
2022-11-08T08:03:08.745Z,19.92
2022-11-08T08:05:40.558Z,19.27
2022-11-08T08:08:09.927Z,22.85
2022-11-08T08:10:38.467Z,21.55
2022-11-08T08:13:06.551Z,22.60
2022-11-08T08:15:33.963Z,24.17
2022-11-08T08:18:03.137Z,20.23
2022-11-08T08:20:32.331Z,22.20
2022-11-08T08:23:00.301Z,20.95
2022-11-08T08:25:31.482Z,23.80
2022-11-08T08:28:01.050Z,22.88
2022-11-08T08:30:30.205Z,22.45
2022-11-08T08:33:29.828Z,24.20
2022-11-08T08:35:57.953Z,21.20
2022-11-08T08:38:25.530Z,22.52
2022-11-08T08:40:53.571Z,21.83
2022-11-08T08:43:21.634Z,23.05
2022-11-08T08:45:49.181Z,22.15
2022-11-08T08:48:16.729Z,22.83
2022-11-08T08:50:44.467Z,21.60
2022-11-08T08:53:11.897Z,18.98
2022-11-08T08:55:41.774Z,17.35
2022-11-08T08:58:10.857Z,17.27
2022-11-08T09:03:25.725Z,15.25
2022-11-08T09:05:53.036Z,14.43
2022-11-08T09:08:20.330Z,14.25
2022-11-08T09:10:56.208Z,16.50
2022-11-08T09:13:24.465Z,23.77
2022-11-08T09:15:52.848Z,18.08
2022-11-08T09:18:31.315Z,19.63
2022-11-08T09:20:59.040Z,18.30
2022-11-08T09:23:27.061Z,18.10
2022-11-08T09:26:02.114Z,17.42
2022-11-08T09:28:31.803Z,16.50
2022-11-08T09:31:08.416Z,17.73
2022-11-08T09:33:36.723Z,16.45
2022-11-08T09:36:05.380Z,13.02
2022-11-08T09:38:33.366Z,15.02
2022-11-08T09:41:31.741Z,14.75
2022-11-08T09:44:07.664Z,13.82
2022-11-08T09:46:56.253Z,16.67
2022-11-08T09:49:38.273Z,15.70
2022-11-08T09:52:06.308Z,15.27
2022-11-08T09:54:42.332Z,16.85
2022-11-08T09:57:21.896Z,15.82
2022-11-08T09:59:54.780Z,15.45
2022-11-08T10:02:24.697Z,16.42
2022-11-08T10:05:00.217Z,15.98
2022-11-08T10:07:51.174Z,15.07
2022-11-08T10:10:34.311Z,15.52
2022-11-08T10:13:04.810Z,17.45
2022-11-08T10:15:50.030Z,14.48
2022-11-08T10:18:32.788Z,16.10
2022-11-08T10:21:09.400Z,15.93
2022-11-08T10:23:44.538Z,20.98
2022-11-08T10:26:20.530Z,14.57
2022-11-08T10:28:56.382Z,14.25
2022-11-08T10:31:23.840Z,13.75
2022-11-08T10:33:56.858Z,13.20
2022-11-08T10:36:32.374Z,17.40
2022-11-08T10:39:09.097Z,14.73
2022-11-08T10:41:56.916Z,12.82
2022-11-08T10:44:27.723Z,13.43
2022-11-08T10:47:00.193Z,12.98
2022-11-08T10:49:40.300Z,13.38
2022-11-08T10:52:18.077Z,13.70
2022-11-08T10:54:47.866Z,13.75
2022-11-08T10:57:30.091Z,14.43
2022-11-08T11:00:16.927Z,15.30
2022-11-08T11:02:48.646Z,13.23
2022-11-08T11:05:19.152Z,13.93
2022-11-08T11:08:09.249Z,13.63
2022-11-08T11:10:40.950Z,12.85
2022-11-08T11:13:24.736Z,13.55
2022-11-08T11:15:58.522Z,14.02
2022-11-08T11:18:40.547Z,13.77
2022-11-08T11:21:16.599Z,14.63
2022-11-08T11:23:49.496Z,12.90
2022-11-08T11:26:21.576Z,13.38
2022-11-08T11:29:06.024Z,13.55
2022-11-08T11:31:40.403Z,14.25
2022-11-08T11:34:19.801Z,13.85
2022-11-08T11:37:05.006Z,13.20
2022-11-08T11:39:49.577Z,13.32
2022-11-08T11:42:51.149Z,12.15
2022-11-08T11:45:52.370Z,12.25
2022-11-08T11:48:31.031Z,13.65
2022-11-08T11:51:00.833Z,11.90
2022-11-08T11:53:31.782Z,12.27
2022-11-08T11:56:14.098Z,11.95
2022-11-08T11:59:05.038Z,12.82
2022-11-08T12:02:09.935Z,12.25
2022-11-08T12:05:08.870Z,14.10
2022-11-08T12:07:45.896Z,12.88
2022-11-08T12:10:45.871Z,13.45
2022-11-08T12:13:53.924Z,12.52
2022-11-08T12:16:26.444Z,12.82
2022-11-08T12:19:10.937Z,13.48
2022-11-08T12:22:24.195Z,14.15
2022-11-08T12:25:20.539Z,13.07
2022-11-08T12:28:30.858Z,13.75
2022-11-08T12:31:25.673Z,13.82
2022-11-08T12:34:08.038Z,14.52
2022-11-08T12:37:16.077Z,14.95
2022-11-08T12:39:56.057Z,14.55
2022-11-08T12:42:50.670Z,15.38
2022-11-08T12:46:09.636Z,14.95
2022-11-08T12:49:04.075Z,16.40
2022-11-08T12:52:01.953Z,16.08
2022-11-08T12:54:35.659Z,14.43
2022-11-08T12:57:16.786Z,15.43
2022-11-08T13:00:19.571Z,13.63
2022-11-08T13:03:06.246Z,16.98
2022-11-08T13:05:47.383Z,14.32
2022-11-08T13:08:29.654Z,16.60
2022-11-08T13:11:01.746Z,15.00
2022-11-08T13:13:56.679Z,15.07
2022-11-08T13:16:28.506Z,15.18
2022-11-08T13:18:58.204Z,14.43
2022-11-08T13:21:28.306Z,15.38
2022-11-08T13:24:09.771Z,14.05
2022-11-08T13:26:43.827Z,14.02
2022-11-08T13:29:29.726Z,16.10
2022-11-08T13:32:04.281Z,15.35
2022-11-08T13:34:40.511Z,15.45
2022-11-08T13:37:43.167Z,16.45
2022-11-08T13:40:13.155Z,14.15
2022-11-08T13:42:50.271Z,14.85
2022-11-08T13:45:18.531Z,13.95
2022-11-08T13:47:48.135Z,14.07
2022-11-08T13:50:35.075Z,15.15
2022-11-08T13:53:24.340Z,15.80
2022-11-08T13:56:07.184Z,15.07
2022-11-08T13:58:43.989Z,18.25
2022-11-08T14:01:23.374Z,16.65
2022-11-08T14:03:59.503Z,18.80
2022-11-08T14:06:57.248Z,19.95
2022-11-08T14:09:54.190Z,19.40
2022-11-08T14:12:37.640Z,18.08
2022-11-08T14:15:16.204Z,17.92
2022-11-08T14:17:54.916Z,19.20
2022-11-08T14:20:41.018Z,18.67
2022-11-08T14:23:24.395Z,19.83
2022-11-08T14:26:03.880Z,18.23
2022-11-08T14:28:37.694Z,15.63
2022-11-08T14:31:15.875Z,16.75
2022-11-08T14:33:43.994Z,27.55
2022-11-08T14:36:18.086Z,18.42
2022-11-08T14:39:17.804Z,16.98
2022-11-08T14:41:52.430Z,17.30
2022-11-08T14:44:20.422Z,15.48
2022-11-08T14:46:50.270Z,17.02
2022-11-08T14:49:46.596Z,16.30
2022-11-08T14:52:23.194Z,16.52
2022-11-08T14:55:12.222Z,16.05
2022-11-08T14:57:41.322Z,16.25
2022-11-08T15:00:28.170Z,15.50
2022-11-08T15:03:00.256Z,17.80
2022-11-08T15:05:41.370Z,16.75
2022-11-08T15:08:38.565Z,16.55
2022-11-08T15:11:12.034Z,16.65
2022-11-08T15:13:50.933Z,17.23
2022-11-08T15:16:21.412Z,20.67
2022-11-08T15:18:49.654Z,22.60
2022-11-08T15:21:33.235Z,22.85
2022-11-08T15:24:15.255Z,24.25
2022-11-08T15:27:13.290Z,29.23
2022-11-08T15:29:50.540Z,26.67
2022-11-08T15:32:21.204Z,26.67
2022-11-08T15:34:49.144Z,25.67
2022-11-08T15:37:34.736Z,26.80
2022-11-08T15:40:18.771Z,25.05
2022-11-08T15:42:52.043Z,25.10
2022-11-08T15:45:20.625Z,25.20
2022-11-08T15:47:52.144Z,24.38
2022-11-08T15:50:21.159Z,23.55
2022-11-08T15:52:52.414Z,24.48
2022-11-08T15:55:31.730Z,24.52
2022-11-08T15:57:59.386Z,24.35
2022-11-08T16:00:31.543Z,24.48
2022-11-08T16:03:07.083Z,26.08
2022-11-08T16:05:41.185Z,27.92
2022-11-08T16:08:18.651Z,29.25
2022-11-08T16:10:53.555Z,27.10
2022-11-08T16:13:28.607Z,27.90
2022-11-08T16:16:02.303Z,26.73
2022-11-08T16:18:34.168Z,26.85
2022-11-08T16:21:03.955Z,24.35
2022-11-08T16:23:32.272Z,23.13
2022-11-08T16:26:03.666Z,24.27
2022-11-08T16:28:38.249Z,24.10
2022-11-08T16:31:08.133Z,28.58
2022-11-08T16:33:41.315Z,28.17
2022-11-08T16:36:27.928Z,32.58
2022-11-08T16:38:59.809Z,29.67
2022-11-08T16:41:30.989Z,36.00
2022-11-08T16:44:03.261Z,35.30
2022-11-08T16:46:31.535Z,35.63
2022-11-08T16:48:59.312Z,33.78
2022-11-08T16:51:26.862Z,35.25
2022-11-08T16:53:54.801Z,33.25
2022-11-08T16:56:32.150Z,31.45
2022-11-08T16:58:59.511Z,31.83
2022-11-08T17:01:31.973Z,33.17
2022-11-08T17:03:59.552Z,32.67
2022-11-08T17:06:26.892Z,34.33
2022-11-08T17:08:54.752Z,44.30
2022-11-08T17:11:24.300Z,33.38
2022-11-08T17:13:55.420Z,35.53
2022-11-08T17:16:31.166Z,35.22
2022-11-08T17:19:02.670Z,33.85
2022-11-08T17:21:49.844Z,34.35
2022-11-08T17:24:22.212Z,32.65
2022-11-08T17:26:50.579Z,31.60
2022-11-08T17:29:18.078Z,41.40
2022-11-08T17:31:49.643Z,39.00
2022-11-08T17:34:17.343Z,36.50
2022-11-08T17:36:44.737Z,44.30
2022-11-08T17:39:14.295Z,45.83
2022-11-08T17:41:41.608Z,48.72
2022-11-08T17:44:10.789Z,49.38
2022-11-08T17:46:52.678Z,48.00
2022-11-08T17:49:32.509Z,46.15
2022-11-08T17:52:11.329Z,45.45
2022-11-08T17:54:42.563Z,47.10
2022-11-08T17:57:13.603Z,46.40
2022-11-08T17:59:41.258Z,44.97
2022-11-08T18:02:18.185Z,47.50
2022-11-08T18:04:47.919Z,49.57
2022-11-08T18:07:16.734Z,45.28
2022-11-08T18:09:50.726Z,48.27
2022-11-08T18:12:18.697Z,47.17
2022-11-08T18:14:47.653Z,45.58
2022-11-08T18:17:21.486Z,45.90
2022-11-08T18:19:50.646Z,45.73
2022-11-08T18:22:19.897Z,44.67
2022-11-08T18:24:49.934Z,53.95
2022-11-08T18:27:18.151Z,44.78
2022-11-08T18:29:47.111Z,45.20
2022-11-08T18:32:15.723Z,43.60
2022-11-08T18:34:43.178Z,44.10
2022-11-08T18:37:13.405Z,48.17
2022-11-08T18:39:41.094Z,44.22
2022-11-08T18:42:09.483Z,47.97
2022-11-08T18:44:36.905Z,49.27
2022-11-08T18:47:04.236Z,49.93
2022-11-08T18:49:31.428Z,51.95
2022-11-08T18:51:58.892Z,49.60
2022-11-08T18:54:26.286Z,51.17
2022-11-08T18:56:53.660Z,49.35
2022-11-08T18:59:21.016Z,50.20
2022-11-08T19:01:50.190Z,67.15
2022-11-08T19:04:21.257Z,53.95
2022-11-08T19:06:54.892Z,53.55
2022-11-08T19:09:28.181Z,52.87
2022-11-08T19:12:05.700Z,47.65
2022-11-08T19:14:36.524Z,44.87
2022-11-08T19:17:04.988Z,49.20
2022-11-08T19:19:40.155Z,50.25
2022-11-08T19:22:11.156Z,52.65
2022-11-08T19:24:40.736Z,53.63
2022-11-08T19:27:13.459Z,50.57
2022-11-08T19:32:29.372Z,57.97
2022-11-08T19:35:03.778Z,52.45
2022-11-08T19:37:31.655Z,53.10
2022-11-08T19:40:02.670Z,54.93
2022-11-08T19:42:30.229Z,50.57
2022-11-08T19:45:00.798Z,54.97
2022-11-08T19:47:32.466Z,56.53
2022-11-08T19:49:59.773Z,52.50
2022-11-08T19:52:26.990Z,57.80
2022-11-08T19:54:58.199Z,55.13
2022-11-08T19:57:27.343Z,58.17
2022-11-08T19:59:54.551Z,56.30
2022-11-08T20:02:21.995Z,53.87
2022-11-08T20:04:51.362Z,55.97
2022-11-08T20:07:18.837Z,52.93
2022-11-08T20:09:50.787Z,51.77
2022-11-08T20:12:18.132Z,53.63
2022-11-08T20:14:49.162Z,54.30
2022-11-08T20:17:17.362Z,55.22
2022-11-08T20:19:46.507Z,52.08
2022-11-08T20:22:14.297Z,50.47
2022-11-08T20:24:41.575Z,50.43
2022-11-08T20:27:09.626Z,50.83
2022-11-08T20:29:36.905Z,51.27
2022-11-08T20:32:04.244Z,54.37
2022-11-08T20:34:31.560Z,53.47
2022-11-08T20:36:59.133Z,55.60
2022-11-08T20:39:26.983Z,56.97
2022-11-08T20:41:54.465Z,56.00
2022-11-08T20:44:24.185Z,53.93
2022-11-08T20:50:51.447Z,59.67
2022-11-08T20:53:18.669Z,61.37
2022-11-08T20:55:45.836Z,60.83
2022-11-08T20:58:13.015Z,62.43
2022-11-08T21:01:05.151Z,63.90
2022-11-08T21:03:33.211Z,67.73
2022-11-08T21:06:02.854Z,65.40
2022-11-08T21:11:20.485Z,66.47
2022-11-08T21:13:48.519Z,65.30
2022-11-08T21:19:02.926Z,67.73
2022-11-08T21:21:33.132Z,67.95
2022-11-08T21:24:03.799Z,64.47
2022-11-08T21:26:42.181Z,65.57
2022-11-08T21:29:09.460Z,67.77
2022-11-08T21:31:37.945Z,65.83
2022-11-08T21:34:05.618Z,64.85
2022-11-08T21:36:40.543Z,61.97
2022-11-08T21:39:11.772Z,63.83
2022-11-08T21:41:40.984Z,64.70
2022-11-08T21:44:08.317Z,65.47
2022-11-08T21:46:35.628Z,70.60
2022-11-08T21:49:03.511Z,64.75
2022-11-08T21:51:30.991Z,71.53
2022-11-08T21:53:59.384Z,65.88
2022-11-08T22:00:18.395Z,65.78
2022-11-08T22:02:48.180Z,66.63
2022-11-08T22:05:16.035Z,65.47
2022-11-08T22:07:49.056Z,65.35
2022-11-08T22:10:25.709Z,67.40
2022-11-08T22:12:54.380Z,65.57
2022-11-08T22:15:21.775Z,65.82
2022-11-08T22:18:14.450Z,65.38
2022-11-08T22:20:37.178Z,62.90
2022-11-08T22:23:08.950Z,62.33
2022-11-08T22:25:39.328Z,59.67
2022-11-08T22:28:07.166Z,61.40
2022-11-08T22:30:35.000Z,57.97
2022-11-08T22:33:05.872Z,57.30
2022-11-08T22:35:33.071Z,54.05
2022-11-08T22:38:00.374Z,52.65
2022-11-08T22:40:28.976Z,54.47
2022-11-08T22:42:57.401Z,51.03
2022-11-08T22:45:24.631Z,53.30
2022-11-08T22:47:52.423Z,51.85
2022-11-08T22:50:25.848Z,49.80
2022-11-08T22:52:56.520Z,51.45
2022-11-08T22:55:23.739Z,49.67
2022-11-08T22:57:52.017Z,51.03
2022-11-08T23:00:25.159Z,51.50
2022-11-08T23:03:00.122Z,50.47
2022-11-08T23:05:27.384Z,49.80
2022-11-08T23:07:55.308Z,51.95
2022-11-08T23:10:22.979Z,49.42
2022-11-08T23:13:08.832Z,52.15
2022-11-08T23:15:55.160Z,48.83
2022-11-08T23:18:23.702Z,50.05
2022-11-08T23:21:13.004Z,50.10
2022-11-08T23:23:59.374Z,50.72
2022-11-08T23:26:45.521Z,48.13
2022-11-08T23:29:31.307Z,49.67
2022-11-08T23:31:58.598Z,47.67
2022-11-08T23:34:27.066Z,49.03
2022-11-08T23:36:54.307Z,46.75
2022-11-08T23:39:21.825Z,46.08
2022-11-08T23:42:07.696Z,44.90
2022-11-08T23:45:28.677Z,43.90
2022-11-08T23:47:56.138Z,46.08
2022-11-08T23:50:26.407Z,46.95
2022-11-08T23:52:54.317Z,47.47
2022-11-08T23:55:24.356Z,43.57
2022-11-08T23:57:51.583Z,44.50
